Fredericksburg, IA (50630)

9:47 PM CST on January 25, 2015 (GMT -0600)
IADOT New Hampton (US 18) | Change Station
CLOSE
Current Station
Personal Weather Station
Location: Ionia, IA
Elevation: 1072 ft
Nearby Weather Stations

Elev 1072 ft 43.07 °N, 92.46 °W | Updated 27 minutes ago

Overcast
Overcast
27 °F
Feels Like 22 °F
N
4
Wind Variable Wind from NW
Gusts 6.0 mph

Today
High -- | Low -- °F
--% Chance of Precip.
Yesterday
High -- | Low -- °F
Precip. -- in
7:30 AM 5:12 PM
Waxing Crescent, 38% visible
Pressure 30.04 in
Visibility 10.0 miles
Clouds Overcast 1300 ft
Windchill 22 °F
Dew Point 22 °F
Humidity 81%
Rainfall -999.00 in
Snow Depth Not available.
UV 0 out of 12
Pollen .10 out of 12
Air Quality Not available.
Flu Activity Not available.
METAR KCCY 260335Z AUTO 25005KT 10SM OVC013 M03/M04 A3004 RMK AO2

More Conditions Fewer Conditions

Pressure 30.04 in
Visibility 10.0 miles
Clouds Overcast 1300 ft
Windchill 22 °F
Dew Point 22 °F
Humidity 81%
Rainfall -999.00 in
Snow Depth Not available.
UV 0 out of 12
Pollen .10 out of 12
Air Quality Not available.
Flu Activity Not available.
METAR KCCY 260335Z AUTO 25005KT 10SM OVC013 M03/M04 A3004 RMK AO2

More Conditions Fewer Conditions

10-Day Weather Forecast

Almanac

Astronomy

Jan. 25, 2015 Rise Set
Actual Time
Civil Twilight
Nautical Twilight
Astronomical Twilight
Moon
Length of Visible Light
Length of Day
Tomorrow will be .
, % of the Moon is Illuminated

Today's Extremes

State Highs State Lows

Community

WunderPhotos

Upload Photos

1,790,106 photos uploaded!

WunderBlogs® & News

Nearby

Air Quality

  Air Quality AQ Index Pollutant
Not available.

Snow Depth

Station Depth Elevation

Earthquake Activity

City Distance Mag. Time & Date
Minimum magnitude displayed is 2.5.

Coastal Water Temperatures

Place Temperature

Nearby Weather Stations